sensor_id;sensor_type;location;lat;lon;timestamp;P1;durP1;ratioP1;P2;durP2;ratioP2
78324;SDS011;67584;51.400;6.692;2023-10-19T00:00:47;18.70;;;11.95;;
78324;SDS011;67584;51.400;6.692;2023-10-19T00:03:17;22.88;;;11.95;;
78324;SDS011;67584;51.400;6.692;2023-10-19T00:05:44;19.55;;;11.57;;
78324;SDS011;67584;51.400;6.692;2023-10-19T00:08:11;16.00;;;9.05;;
78324;SDS011;67584;51.400;6.692;2023-10-19T00:10:41;18.20;;;10.85;;
78324;SDS011;67584;51.400;6.692;2023-10-19T00:13:09;17.02;;;11.45;;
78324;SDS011;67584;51.400;6.692;2023-10-19T00:15:39;14.90;;;10.40;;
78324;SDS011;67584;51.400;6.692;2023-10-19T00:18:14;16.88;;;12.60;;
78324;SDS011;67584;51.400;6.692;2023-10-19T00:20:40;19.73;;;12.40;;
78324;SDS011;67584;51.400;6.692;2023-10-19T00:23:06;15.65;;;9.65;;
78324;SDS011;67584;51.400;6.692;2023-10-19T00:25:35;16.75;;;10.60;;
78324;SDS011;67584;51.400;6.692;2023-10-19T00:28:00;15.93;;;11.68;;
78324;SDS011;67584;51.400;6.692;2023-10-19T00:30:29;19.42;;;11.02;;
78324;SDS011;67584;51.400;6.692;2023-10-19T00:32:57;17.33;;;10.68;;
78324;SDS011;67584;51.400;6.692;2023-10-19T00:35:28;11.40;;;8.77;;
78324;SDS011;67584;51.400;6.692;2023-10-19T00:38:01;12.63;;;9.18;;
78324;SDS011;67584;51.400;6.692;2023-10-19T00:41:07;11.73;;;7.53;;
78324;SDS011;67584;51.400;6.692;2023-10-19T00:43:37;16.42;;;10.63;;
78324;SDS011;67584;51.400;6.692;2023-10-19T00:46:08;15.50;;;10.40;;
78324;SDS011;67584;51.400;6.692;2023-10-19T00:48:42;16.80;;;12.60;;
78324;SDS011;67584;51.400;6.692;2023-10-19T00:51:20;15.95;;;11.00;;
78324;SDS011;67584;51.400;6.692;2023-10-19T00:53:54;15.18;;;9.85;;
78324;SDS011;67584;51.400;6.692;2023-10-19T00:56:22;14.30;;;9.82;;
78324;SDS011;67584;51.400;6.692;2023-10-19T00:58:49;15.07;;;10.15;;
78324;SDS011;67584;51.400;6.692;2023-10-19T01:01:22;13.02;;;9.48;;
78324;SDS011;67584;51.400;6.692;2023-10-19T01:03:50;16.02;;;10.32;;
78324;SDS011;67584;51.400;6.692;2023-10-19T01:06:22;21.75;;;12.75;;
78324;SDS011;67584;51.400;6.692;2023-10-19T01:08:48;18.40;;;12.15;;
78324;SDS011;67584;51.400;6.692;2023-10-19T01:11:16;15.20;;;9.32;;
78324;SDS011;67584;51.400;6.692;2023-10-19T01:13:46;16.73;;;10.02;;
78324;SDS011;67584;51.400;6.692;2023-10-19T01:16:16;16.27;;;11.43;;
78324;SDS011;67584;51.400;6.692;2023-10-19T01:18:52;14.40;;;10.13;;
78324;SDS011;67584;51.400;6.692;2023-10-19T01:24:11;16.40;;;9.40;;
78324;SDS011;67584;51.400;6.692;2023-10-19T01:26:42;12.15;;;8.77;;
78324;SDS011;67584;51.400;6.692;2023-10-19T01:29:08;12.18;;;10.20;;
78324;SDS011;67584;51.400;6.692;2023-10-19T01:31:42;13.52;;;7.43;;
78324;SDS011;67584;51.400;6.692;2023-10-19T01:34:21;11.32;;;8.18;;
78324;SDS011;67584;51.400;6.692;2023-10-19T01:36:47;12.35;;;9.40;;
78324;SDS011;67584;51.400;6.692;2023-10-19T01:39:16;9.50;;;5.88;;
78324;SDS011;67584;51.400;6.692;2023-10-19T01:41:44;11.80;;;7.13;;
78324;SDS011;67584;51.400;6.692;2023-10-19T01:44:10;8.75;;;5.68;;
78324;SDS011;67584;51.400;6.692;2023-10-19T01:46:40;8.77;;;6.25;;
78324;SDS011;67584;51.400;6.692;2023-10-19T01:49:09;8.52;;;6.60;;
78324;SDS011;67584;51.400;6.692;2023-10-19T01:51:35;8.85;;;7.30;;
78324;SDS011;67584;51.400;6.692;2023-10-19T01:54:07;10.20;;;7.90;;
78324;SDS011;67584;51.400;6.692;2023-10-19T01:56:33;11.07;;;7.03;;
78324;SDS011;67584;51.400;6.692;2023-10-19T01:59:03;11.77;;;7.53;;
78324;SDS011;67584;51.400;6.692;2023-10-19T02:01:30;14.75;;;10.02;;
78324;SDS011;67584;51.400;6.692;2023-10-19T02:04:01;14.77;;;10.35;;
78324;SDS011;67584;51.400;6.692;2023-10-19T02:06:31;16.27;;;9.95;;
78324;SDS011;67584;51.400;6.692;2023-10-19T02:09:09;14.07;;;10.40;;
78324;SDS011;67584;51.400;6.692;2023-10-19T02:11:48;13.77;;;9.27;;
78324;SDS011;67584;51.400;6.692;2023-10-19T02:14:18;13.75;;;9.70;;
78324;SDS011;67584;51.400;6.692;2023-10-19T02:16:45;18.10;;;10.95;;
78324;SDS011;67584;51.400;6.692;2023-10-19T02:19:12;15.32;;;9.70;;
78324;SDS011;67584;51.400;6.692;2023-10-19T02:21:39;14.50;;;10.10;;
78324;SDS011;67584;51.400;6.692;2023-10-19T02:24:09;19.27;;;12.75;;
78324;SDS011;67584;51.400;6.692;2023-10-19T02:26:39;16.15;;;9.38;;
78324;SDS011;67584;51.400;6.692;2023-10-19T02:29:06;9.40;;;7.47;;
78324;SDS011;67584;51.400;6.692;2023-10-19T02:31:33;12.57;;;8.15;;
78324;SDS011;67584;51.400;6.692;2023-10-19T02:34:03;14.52;;;9.05;;
78324;SDS011;67584;51.400;6.692;2023-10-19T02:36:32;12.18;;;7.45;;
78324;SDS011;67584;51.400;6.692;2023-10-19T02:39:02;12.27;;;6.85;;
78324;SDS011;67584;51.400;6.692;2023-10-19T02:41:35;9.90;;;6.55;;
78324;SDS011;67584;51.400;6.692;2023-10-19T02:44:07;7.40;;;6.00;;
78324;SDS011;67584;51.400;6.692;2023-10-19T02:46:43;8.95;;;5.60;;
78324;SDS011;67584;51.400;6.692;2023-10-19T02:49:15;7.03;;;5.25;;
78324;SDS011;67584;51.400;6.692;2023-10-19T02:51:46;6.30;;;5.10;;
78324;SDS011;67584;51.400;6.692;2023-10-19T02:54:14;6.50;;;5.30;;
78324;SDS011;67584;51.400;6.692;2023-10-19T02:56:45;6.72;;;5.10;;
78324;SDS011;67584;51.400;6.692;2023-10-19T02:59:17;5.60;;;4.75;;
78324;SDS011;67584;51.400;6.692;2023-10-19T03:01:47;8.90;;;5.15;;
78324;SDS011;67584;51.400;6.692;2023-10-19T03:04:14;7.60;;;5.70;;
78324;SDS011;67584;51.400;6.692;2023-10-19T03:06:40;6.38;;;5.28;;
78324;SDS011;67584;51.400;6.692;2023-10-19T03:09:07;6.35;;;4.63;;
78324;SDS011;67584;51.400;6.692;2023-10-19T03:11:57;8.57;;;5.90;;
78324;SDS011;67584;51.400;6.692;2023-10-19T03:14:30;8.65;;;5.20;;
78324;SDS011;67584;51.400;6.692;2023-10-19T03:16:57;7.10;;;6.00;;
78324;SDS011;67584;51.400;6.692;2023-10-19T03:19:23;7.75;;;5.78;;
78324;SDS011;67584;51.400;6.692;2023-10-19T03:21:52;10.23;;;6.78;;
78324;SDS011;67584;51.400;6.692;2023-10-19T03:24:20;12.52;;;7.50;;
78324;SDS011;67584;51.400;6.692;2023-10-19T03:27:04;9.40;;;7.25;;
78324;SDS011;67584;51.400;6.692;2023-10-19T03:29:38;9.48;;;7.20;;
78324;SDS011;67584;51.400;6.692;2023-10-19T03:32:05;10.80;;;7.80;;
78324;SDS011;67584;51.400;6.692;2023-10-19T03:34:35;8.73;;;7.45;;
78324;SDS011;67584;51.400;6.692;2023-10-19T03:37:01;10.63;;;6.57;;
78324;SDS011;67584;51.400;6.692;2023-10-19T03:39:34;9.90;;;7.22;;
78324;SDS011;67584;51.400;6.692;2023-10-19T03:42:03;13.77;;;9.00;;
78324;SDS011;67584;51.400;6.692;2023-10-19T03:44:31;11.18;;;7.43;;
78324;SDS011;67584;51.400;6.692;2023-10-19T03:47:16;8.40;;;6.70;;
78324;SDS011;67584;51.400;6.692;2023-10-19T03:49:46;8.27;;;5.00;;
78324;SDS011;67584;51.400;6.692;2023-10-19T03:52:13;23.35;;;7.03;;
78324;SDS011;67584;51.400;6.692;2023-10-19T03:54:39;7.30;;;5.20;;
78324;SDS011;67584;51.400;6.692;2023-10-19T03:57:05;8.05;;;5.45;;
78324;SDS011;67584;51.400;6.692;2023-10-19T03:59:37;7.40;;;5.43;;
78324;SDS011;67584;51.400;6.692;2023-10-19T04:02:09;9.68;;;5.75;;
78324;SDS011;67584;51.400;6.692;2023-10-19T04:04:42;8.35;;;6.40;;
78324;SDS011;67584;51.400;6.692;2023-10-19T04:07:11;11.43;;;6.13;;
78324;SDS011;67584;51.400;6.692;2023-10-19T04:09:46;9.63;;;6.30;;
78324;SDS011;67584;51.400;6.692;2023-10-19T04:12:34;10.95;;;6.55;;
78324;SDS011;67584;51.400;6.692;2023-10-19T04:15:02;10.82;;;6.57;;
78324;SDS011;67584;51.400;6.692;2023-10-19T04:17:41;10.07;;;7.15;;
78324;SDS011;67584;51.400;6.692;2023-10-19T04:20:08;11.38;;;6.68;;
78324;SDS011;67584;51.400;6.692;2023-10-19T04:22:53;11.27;;;6.50;;
78324;SDS011;67584;51.400;6.692;2023-10-19T04:25:19;9.10;;;7.03;;
78324;SDS011;67584;51.400;6.692;2023-10-19T04:27:46;12.32;;;7.93;;
78324;SDS011;67584;51.400;6.692;2023-10-19T04:30:15;12.45;;;7.57;;
78324;SDS011;67584;51.400;6.692;2023-10-19T04:32:41;10.43;;;7.05;;
78324;SDS011;67584;51.400;6.692;2023-10-19T04:35:07;9.02;;;6.97;;
78324;SDS011;67584;51.400;6.692;2023-10-19T04:37:38;8.15;;;6.95;;
78324;SDS011;67584;51.400;6.692;2023-10-19T04:40:08;9.10;;;5.43;;
78324;SDS011;67584;51.400;6.692;2023-10-19T04:42:34;10.65;;;6.35;;
78324;SDS011;67584;51.400;6.692;2023-10-19T04:45:02;8.00;;;5.95;;
78324;SDS011;67584;51.400;6.692;2023-10-19T04:47:28;9.98;;;6.15;;
78324;SDS011;67584;51.400;6.692;2023-10-19T04:49:54;8.45;;;6.38;;
78324;SDS011;67584;51.400;6.692;2023-10-19T04:52:20;8.15;;;5.30;;
78324;SDS011;67584;51.400;6.692;2023-10-19T04:54:46;7.47;;;5.70;;
78324;SDS011;67584;51.400;6.692;2023-10-19T04:57:12;6.50;;;5.32;;
78324;SDS011;67584;51.400;6.692;2023-10-19T04:59:38;7.75;;;5.40;;
78324;SDS011;67584;51.400;6.692;2023-10-19T05:02:03;6.75;;;5.30;;
78324;SDS011;67584;51.400;6.692;2023-10-19T05:04:30;5.60;;;4.93;;
78324;SDS011;67584;51.400;6.692;2023-10-19T05:06:56;7.53;;;5.50;;
78324;SDS011;67584;51.400;6.692;2023-10-19T05:09:22;9.30;;;5.50;;
78324;SDS011;67584;51.400;6.692;2023-10-19T05:11:47;9.45;;;5.70;;
78324;SDS011;67584;51.400;6.692;2023-10-19T05:14:13;7.75;;;5.70;;
78324;SDS011;67584;51.400;6.692;2023-10-19T05:16:39;7.38;;;5.05;;
78324;SDS011;67584;51.400;6.692;2023-10-19T05:19:05;7.80;;;6.35;;
78324;SDS011;67584;51.400;6.692;2023-10-19T05:21:31;10.75;;;5.00;;
78324;SDS011;67584;51.400;6.692;2023-10-19T05:23:56;5.32;;;4.65;;
78324;SDS011;67584;51.400;6.692;2023-10-19T05:26:25;8.57;;;5.07;;
78324;SDS011;67584;51.400;6.692;2023-10-19T05:28:52;8.48;;;5.22;;
78324;SDS011;67584;51.400;6.692;2023-10-19T05:31:19;6.60;;;5.07;;
78324;SDS011;67584;51.400;6.692;2023-10-19T05:33:45;7.85;;;4.13;;
78324;SDS011;67584;51.400;6.692;2023-10-19T05:36:13;5.28;;;4.43;;
78324;SDS011;67584;51.400;6.692;2023-10-19T05:38:40;6.68;;;4.10;;
78324;SDS011;67584;51.400;6.692;2023-10-19T05:41:05;6.53;;;4.60;;
78324;SDS011;67584;51.400;6.692;2023-10-19T05:43:32;5.93;;;4.55;;
78324;SDS011;67584;51.400;6.692;2023-10-19T05:45:59;6.28;;;5.10;;
78324;SDS011;67584;51.400;6.692;2023-10-19T05:48:25;9.32;;;5.18;;
78324;SDS011;67584;51.400;6.692;2023-10-19T05:50:52;6.07;;;4.32;;
78324;SDS011;67584;51.400;6.692;2023-10-19T05:53:17;5.60;;;4.40;;
78324;SDS011;67584;51.400;6.692;2023-10-19T05:55:46;5.93;;;5.03;;
78324;SDS011;67584;51.400;6.692;2023-10-19T05:58:12;5.13;;;4.63;;
78324;SDS011;67584;51.400;6.692;2023-10-19T06:00:38;7.90;;;4.93;;
78324;SDS011;67584;51.400;6.692;2023-10-19T06:03:04;8.02;;;4.50;;
78324;SDS011;67584;51.400;6.692;2023-10-19T06:05:29;7.13;;;4.97;;
78324;SDS011;67584;51.400;6.692;2023-10-19T06:07:56;6.15;;;4.57;;
78324;SDS011;67584;51.400;6.692;2023-10-19T06:10:24;5.63;;;4.30;;
78324;SDS011;67584;51.400;6.692;2023-10-19T06:12:52;7.28;;;4.63;;
78324;SDS011;67584;51.400;6.692;2023-10-19T06:15:18;6.82;;;5.10;;
78324;SDS011;67584;51.400;6.692;2023-10-19T06:17:56;6.72;;;5.05;;
78324;SDS011;67584;51.400;6.692;2023-10-19T06:20:22;6.97;;;4.93;;
78324;SDS011;67584;51.400;6.692;2023-10-19T06:23:00;5.45;;;4.05;;
78324;SDS011;67584;51.400;6.692;2023-10-19T06:25:29;5.63;;;4.72;;
78324;SDS011;67584;51.400;6.692;2023-10-19T06:27:56;6.50;;;4.63;;
78324;SDS011;67584;51.400;6.692;2023-10-19T06:30:26;6.82;;;4.40;;
78324;SDS011;67584;51.400;6.692;2023-10-19T06:32:53;7.07;;;5.03;;
78324;SDS011;67584;51.400;6.692;2023-10-19T06:35:21;6.00;;;4.45;;
78324;SDS011;67584;51.400;6.692;2023-10-19T06:37:47;7.05;;;4.20;;
78324;SDS011;67584;51.400;6.692;2023-10-19T06:40:14;5.88;;;4.40;;
78324;SDS011;67584;51.400;6.692;2023-10-19T06:42:41;4.88;;;4.30;;
78324;SDS011;67584;51.400;6.692;2023-10-19T06:45:08;5.97;;;4.57;;
78324;SDS011;67584;51.400;6.692;2023-10-19T06:47:35;6.28;;;4.43;;
78324;SDS011;67584;51.400;6.692;2023-10-19T06:50:06;4.97;;;4.53;;
78324;SDS011;67584;51.400;6.692;2023-10-19T06:52:35;6.45;;;4.40;;
78324;SDS011;67584;51.400;6.692;2023-10-19T06:55:06;6.13;;;4.18;;
78324;SDS011;67584;51.400;6.692;2023-10-19T06:57:38;6.88;;;4.80;;
78324;SDS011;67584;51.400;6.692;2023-10-19T07:00:14;8.40;;;4.30;;
78324;SDS011;67584;51.400;6.692;2023-10-19T07:02:54;5.60;;;4.47;;
78324;SDS011;67584;51.400;6.692;2023-10-19T07:05:21;5.55;;;4.80;;
78324;SDS011;67584;51.400;6.692;2023-10-19T07:07:54;5.88;;;4.35;;
78324;SDS011;67584;51.400;6.692;2023-10-19T07:10:22;6.82;;;5.00;;
78324;SDS011;67584;51.400;6.692;2023-10-19T07:12:50;4.57;;;4.07;;
78324;SDS011;67584;51.400;6.692;2023-10-19T07:15:18;5.05;;;4.40;;
78324;SDS011;67584;51.400;6.692;2023-10-19T07:17:45;7.18;;;4.88;;
78324;SDS011;67584;51.400;6.692;2023-10-19T07:20:12;7.45;;;4.88;;
78324;SDS011;67584;51.400;6.692;2023-10-19T07:23:01;5.95;;;4.15;;
78324;SDS011;67584;51.400;6.692;2023-10-19T07:25:51;5.70;;;4.25;;
78324;SDS011;67584;51.400;6.692;2023-10-19T07:28:21;4.65;;;4.15;;
78324;SDS011;67584;51.400;6.692;2023-10-19T07:30:51;6.10;;;3.92;;
78324;SDS011;67584;51.400;6.692;2023-10-19T07:33:17;5.22;;;4.72;;
78324;SDS011;67584;51.400;6.692;2023-10-19T07:35:48;4.90;;;4.40;;
78324;SDS011;67584;51.400;6.692;2023-10-19T07:38:25;6.25;;;4.88;;
78324;SDS011;67584;51.400;6.692;2023-10-19T07:40:53;5.63;;;4.18;;
78324;SDS011;67584;51.400;6.692;2023-10-19T07:43:19;6.05;;;4.57;;
78324;SDS011;67584;51.400;6.692;2023-10-19T07:45:45;6.03;;;5.13;;
78324;SDS011;67584;51.400;6.692;2023-10-19T07:48:12;5.82;;;5.00;;
78324;SDS011;67584;51.400;6.692;2023-10-19T07:50:39;7.72;;;4.63;;
78324;SDS011;67584;51.400;6.692;2023-10-19T07:53:08;6.70;;;4.40;;
78324;SDS011;67584;51.400;6.692;2023-10-19T07:55:34;5.40;;;4.80;;
78324;SDS011;67584;51.400;6.692;2023-10-19T07:58:01;5.53;;;4.22;;
78324;SDS011;67584;51.400;6.692;2023-10-19T08:00:31;7.97;;;4.63;;
78324;SDS011;67584;51.400;6.692;2023-10-19T08:03:01;5.63;;;4.47;;
78324;SDS011;67584;51.400;6.692;2023-10-19T08:05:27;5.85;;;4.47;;
78324;SDS011;67584;51.400;6.692;2023-10-19T08:07:53;5.90;;;4.43;;
78324;SDS011;67584;51.400;6.692;2023-10-19T08:10:19;6.72;;;4.80;;
78324;SDS011;67584;51.400;6.692;2023-10-19T08:12:46;4.75;;;3.78;;
78324;SDS011;67584;51.400;6.692;2023-10-19T08:15:13;4.85;;;4.35;;
78324;SDS011;67584;51.400;6.692;2023-10-19T08:17:41;6.80;;;4.47;;
78324;SDS011;67584;51.400;6.692;2023-10-19T08:20:10;6.65;;;3.85;;
78324;SDS011;67584;51.400;6.692;2023-10-19T08:22:44;5.80;;;4.10;;
78324;SDS011;67584;51.400;6.692;2023-10-19T08:25:12;6.97;;;4.00;;
78324;SDS011;67584;51.400;6.692;2023-10-19T08:27:46;8.38;;;4.35;;
78324;SDS011;67584;51.400;6.692;2023-10-19T08:30:21;5.10;;;4.03;;
78324;SDS011;67584;51.400;6.692;2023-10-19T08:32:48;4.93;;;4.35;;
78324;SDS011;67584;51.400;6.692;2023-10-19T08:35:18;4.82;;;3.70;;
78324;SDS011;67584;51.400;6.692;2023-10-19T08:37:54;5.95;;;5.32;;
78324;SDS011;67584;51.400;6.692;2023-10-19T08:40:22;5.50;;;4.28;;
78324;SDS011;67584;51.400;6.692;2023-10-19T08:42:52;5.38;;;4.32;;
78324;SDS011;67584;51.400;6.692;2023-10-19T08:45:18;5.57;;;4.25;;
78324;SDS011;67584;51.400;6.692;2023-10-19T08:47:54;7.20;;;5.47;;
78324;SDS011;67584;51.400;6.692;2023-10-19T08:50:27;8.38;;;5.55;;
78324;SDS011;67584;51.400;6.692;2023-10-19T08:52:55;6.57;;;5.05;;
78324;SDS011;67584;51.400;6.692;2023-10-19T08:55:22;6.97;;;5.55;;
78324;SDS011;67584;51.400;6.692;2023-10-19T08:57:49;8.70;;;5.82;;
78324;SDS011;67584;51.400;6.692;2023-10-19T09:00:16;10.30;;;6.43;;
78324;SDS011;67584;51.400;6.692;2023-10-19T09:02:44;14.23;;;8.25;;
78324;SDS011;67584;51.400;6.692;2023-10-19T09:05:10;12.48;;;7.97;;
78324;SDS011;67584;51.400;6.692;2023-10-19T09:10:24;12.18;;;9.32;;
78324;SDS011;67584;51.400;6.692;2023-10-19T09:12:58;12.10;;;8.63;;
78324;SDS011;67584;51.400;6.692;2023-10-19T09:15:26;11.77;;;8.35;;
78324;SDS011;67584;51.400;6.692;2023-10-19T09:17:53;10.57;;;8.02;;
78324;SDS011;67584;51.400;6.692;2023-10-19T09:20:21;13.10;;;8.35;;
78324;SDS011;67584;51.400;6.692;2023-10-19T09:22:55;11.00;;;6.70;;
78324;SDS011;67584;51.400;6.692;2023-10-19T09:25:23;9.27;;;6.95;;
78324;SDS011;67584;51.400;6.692;2023-10-19T09:27:49;8.77;;;6.40;;
78324;SDS011;67584;51.400;6.692;2023-10-19T09:30:17;9.27;;;6.80;;
78324;SDS011;67584;51.400;6.692;2023-10-19T09:32:48;8.02;;;5.82;;
78324;SDS011;67584;51.400;6.692;2023-10-19T09:35:14;9.30;;;5.63;;
78324;SDS011;67584;51.400;6.692;2023-10-19T09:37:44;8.63;;;5.80;;
78324;SDS011;67584;51.400;6.692;2023-10-19T09:40:10;8.82;;;6.68;;
78324;SDS011;67584;51.400;6.692;2023-10-19T09:42:42;9.52;;;6.40;;
78324;SDS011;67584;51.400;6.692;2023-10-19T09:45:12;9.50;;;6.05;;
78324;SDS011;67584;51.400;6.692;2023-10-19T09:47:44;7.07;;;4.78;;
78324;SDS011;67584;51.400;6.692;2023-10-19T09:50:15;9.88;;;6.07;;
78324;SDS011;67584;51.400;6.692;2023-10-19T09:52:40;5.97;;;4.50;;
78324;SDS011;67584;51.400;6.692;2023-10-19T09:55:22;8.82;;;4.13;;
78324;SDS011;67584;51.400;6.692;2023-10-19T10:00:23;8.25;;;5.43;;
78324;SDS011;67584;51.400;6.692;2023-10-19T10:02:50;8.05;;;4.65;;
78324;SDS011;67584;51.400;6.692;2023-10-19T10:10:49;8.57;;;4.07;;
78324;SDS011;67584;51.400;6.692;2023-10-19T10:15:57;6.93;;;3.95;;
78324;SDS011;67584;51.400;6.692;2023-10-19T10:18:23;6.47;;;4.78;;
78324;SDS011;67584;51.400;6.692;2023-10-19T10:23:44;4.75;;;3.17;;
78324;SDS011;67584;51.400;6.692;2023-10-19T10:26:13;5.75;;;3.50;;
78324;SDS011;67584;51.400;6.692;2023-10-19T10:28:40;5.15;;;2.85;;
78324;SDS011;67584;51.400;6.692;2023-10-19T10:31:11;7.38;;;2.70;;
78324;SDS011;67584;51.400;6.692;2023-10-19T10:33:41;5.30;;;2.88;;
78324;SDS011;67584;51.400;6.692;2023-10-19T10:36:12;5.00;;;3.22;;
78324;SDS011;67584;51.400;6.692;2023-10-19T10:38:39;5.15;;;3.63;;
78324;SDS011;67584;51.400;6.692;2023-10-19T10:41:06;8.50;;;3.55;;
78324;SDS011;67584;51.400;6.692;2023-10-19T10:43:48;5.97;;;3.30;;
78324;SDS011;67584;51.400;6.692;2023-10-19T10:46:18;7.45;;;3.55;;
78324;SDS011;67584;51.400;6.692;2023-10-19T10:48:47;6.65;;;2.45;;
78324;SDS011;67584;51.400;6.692;2023-10-19T10:53:55;4.43;;;2.83;;
78324;SDS011;67584;51.400;6.692;2023-10-19T10:56:22;8.05;;;3.65;;
78324;SDS011;67584;51.400;6.692;2023-10-19T10:58:48;8.10;;;3.00;;
78324;SDS011;67584;51.400;6.692;2023-10-19T11:01:30;5.13;;;2.67;;
78324;SDS011;67584;51.400;6.692;2023-10-19T11:04:05;4.72;;;2.63;;
78324;SDS011;67584;51.400;6.692;2023-10-19T11:06:32;6.95;;;2.53;;
78324;SDS011;67584;51.400;6.692;2023-10-19T11:08:58;7.60;;;2.42;;
78324;SDS011;67584;51.400;6.692;2023-10-19T11:11:37;7.85;;;2.88;;
78324;SDS011;67584;51.400;6.692;2023-10-19T11:14:10;7.30;;;3.03;;
78324;SDS011;67584;51.400;6.692;2023-10-19T11:16:36;5.28;;;2.35;;
78324;SDS011;67584;51.400;6.692;2023-10-19T11:19:04;6.30;;;2.92;;
78324;SDS011;67584;51.400;6.692;2023-10-19T11:21:30;3.45;;;2.70;;
78324;SDS011;67584;51.400;6.692;2023-10-19T11:23:56;6.00;;;2.58;;
78324;SDS011;67584;51.400;6.692;2023-10-19T11:26:22;7.80;;;3.92;;
78324;SDS011;67584;51.400;6.692;2023-10-19T11:29:01;7.35;;;4.30;;
78324;SDS011;67584;51.400;6.692;2023-10-19T11:31:30;6.95;;;3.90;;
78324;SDS011;67584;51.400;6.692;2023-10-19T11:34:03;5.22;;;2.88;;
78324;SDS011;67584;51.400;6.692;2023-10-19T11:36:29;4.82;;;2.50;;
78324;SDS011;67584;51.400;6.692;2023-10-19T11:38:55;5.07;;;2.20;;
78324;SDS011;67584;51.400;6.692;2023-10-19T11:41:21;6.18;;;2.90;;
78324;SDS011;67584;51.400;6.692;2023-10-19T11:43:48;5.97;;;2.97;;
78324;SDS011;67584;51.400;6.692;2023-10-19T11:46:14;4.88;;;2.72;;
78324;SDS011;67584;51.400;6.692;2023-10-19T11:48:42;8.18;;;3.35;;
78324;SDS011;67584;51.400;6.692;2023-10-19T11:51:08;5.28;;;3.55;;
78324;SDS011;67584;51.400;6.692;2023-10-19T11:53:36;7.90;;;4.28;;
78324;SDS011;67584;51.400;6.692;2023-10-19T11:56:04;4.72;;;2.70;;
78324;SDS011;67584;51.400;6.692;2023-10-19T11:58:32;6.45;;;2.63;;
78324;SDS011;67584;51.400;6.692;2023-10-19T12:01:00;8.20;;;3.38;;
78324;SDS011;67584;51.400;6.692;2023-10-19T12:03:26;6.38;;;3.13;;
78324;SDS011;67584;51.400;6.692;2023-10-19T12:05:53;8.35;;;3.13;;
78324;SDS011;67584;51.400;6.692;2023-10-19T12:08:19;8.02;;;3.55;;
78324;SDS011;67584;51.400;6.692;2023-10-19T12:10:44;6.60;;;3.28;;
78324;SDS011;67584;51.400;6.692;2023-10-19T12:13:10;8.48;;;3.20;;
78324;SDS011;67584;51.400;6.692;2023-10-19T12:15:37;6.03;;;3.05;;
78324;SDS011;67584;51.400;6.692;2023-10-19T12:18:02;5.93;;;2.65;;
78324;SDS011;67584;51.400;6.692;2023-10-19T12:20:29;4.55;;;2.53;;
78324;SDS011;67584;51.400;6.692;2023-10-19T12:22:57;5.07;;;2.58;;
78324;SDS011;67584;51.400;6.692;2023-10-19T12:25:24;7.25;;;2.60;;
78324;SDS011;67584;51.400;6.692;2023-10-19T12:28:00;5.10;;;2.40;;
78324;SDS011;67584;51.400;6.692;2023-10-19T12:30:26;6.88;;;2.30;;
78324;SDS011;67584;51.400;6.692;2023-10-19T12:32:57;7.78;;;2.88;;
78324;SDS011;67584;51.400;6.692;2023-10-19T12:35:26;5.05;;;2.72;;
78324;SDS011;67584;51.400;6.692;2023-10-19T12:38:18;7.57;;;2.33;;
78324;SDS011;67584;51.400;6.692;2023-10-19T12:40:45;5.70;;;2.63;;
78324;SDS011;67584;51.400;6.692;2023-10-19T12:43:13;5.95;;;3.08;;
78324;SDS011;67584;51.400;6.692;2023-10-19T12:45:40;5.50;;;2.28;;
78324;SDS011;67584;51.400;6.692;2023-10-19T12:48:06;7.38;;;2.50;;
78324;SDS011;67584;51.400;6.692;2023-10-19T12:50:36;6.18;;;2.47;;
78324;SDS011;67584;51.400;6.692;2023-10-19T12:53:02;5.45;;;3.17;;
78324;SDS011;67584;51.400;6.692;2023-10-19T12:55:28;3.58;;;2.38;;
78324;SDS011;67584;51.400;6.692;2023-10-19T12:57:56;4.57;;;1.95;;
78324;SDS011;67584;51.400;6.692;2023-10-19T13:00:22;7.82;;;2.88;;
78324;SDS011;67584;51.400;6.692;2023-10-19T13:02:49;6.97;;;2.88;;
78324;SDS011;67584;51.400;6.692;2023-10-19T13:05:15;4.38;;;2.28;;
78324;SDS011;67584;51.400;6.692;2023-10-19T13:07:43;6.95;;;2.47;;
78324;SDS011;67584;51.400;6.692;2023-10-19T13:10:09;4.13;;;2.53;;
78324;SDS011;67584;51.400;6.692;2023-10-19T13:12:36;4.50;;;2.55;;
78324;SDS011;67584;51.400;6.692;2023-10-19T13:15:03;8.52;;;2.72;;
78324;SDS011;67584;51.400;6.692;2023-10-19T13:17:37;5.38;;;2.33;;
78324;SDS011;67584;51.400;6.692;2023-10-19T13:20:08;6.40;;;2.35;;
78324;SDS011;67584;51.400;6.692;2023-10-19T13:22:44;7.38;;;2.25;;
78324;SDS011;67584;51.400;6.692;2023-10-19T13:25:10;7.88;;;2.25;;
78324;SDS011;67584;51.400;6.692;2023-10-19T13:27:42;4.93;;;2.15;;
78324;SDS011;67584;51.400;6.692;2023-10-19T13:30:14;3.95;;;2.20;;
78324;SDS011;67584;51.400;6.692;2023-10-19T13:32:40;6.55;;;2.95;;
78324;SDS011;67584;51.400;6.692;2023-10-19T13:35:08;4.03;;;2.35;;
78324;SDS011;67584;51.400;6.692;2023-10-19T13:37:34;4.63;;;2.63;;
78324;SDS011;67584;51.400;6.692;2023-10-19T13:40:01;6.43;;;2.95;;
78324;SDS011;67584;51.400;6.692;2023-10-19T13:42:29;6.07;;;2.97;;
78324;SDS011;67584;51.400;6.692;2023-10-19T13:44:55;5.85;;;2.35;;
78324;SDS011;67584;51.400;6.692;2023-10-19T13:47:21;6.55;;;3.10;;
78324;SDS011;67584;51.400;6.692;2023-10-19T13:49:47;4.38;;;2.60;;
78324;SDS011;67584;51.400;6.692;2023-10-19T13:52:12;6.22;;;3.63;;
78324;SDS011;67584;51.400;6.692;2023-10-19T13:54:40;5.68;;;2.83;;
78324;SDS011;67584;51.400;6.692;2023-10-19T13:57:06;5.35;;;2.50;;
78324;SDS011;67584;51.400;6.692;2023-10-19T13:59:31;5.60;;;2.47;;
78324;SDS011;67584;51.400;6.692;2023-10-19T14:04:25;4.07;;;3.05;;
78324;SDS011;67584;51.400;6.692;2023-10-19T14:06:51;5.97;;;3.17;;
78324;SDS011;67584;51.400;6.692;2023-10-19T14:09:19;4.70;;;2.90;;
78324;SDS011;67584;51.400;6.692;2023-10-19T14:11:44;4.03;;;2.63;;
78324;SDS011;67584;51.400;6.692;2023-10-19T14:14:11;5.45;;;2.72;;
78324;SDS011;67584;51.400;6.692;2023-10-19T14:16:37;5.13;;;3.00;;
78324;SDS011;67584;51.400;6.692;2023-10-19T14:19:04;6.80;;;2.78;;
78324;SDS011;67584;51.400;6.692;2023-10-19T14:21:30;3.97;;;2.20;;
78324;SDS011;67584;51.400;6.692;2023-10-19T14:23:57;5.30;;;2.63;;
78324;SDS011;67584;51.400;6.692;2023-10-19T14:26:23;5.70;;;3.40;;
78324;SDS011;67584;51.400;6.692;2023-10-19T14:28:48;5.85;;;3.05;;
78324;SDS011;67584;51.400;6.692;2023-10-19T14:31:14;4.20;;;2.10;;
78324;SDS011;67584;51.400;6.692;2023-10-19T14:33:41;5.28;;;2.50;;
78324;SDS011;67584;51.400;6.692;2023-10-19T14:36:08;3.33;;;2.15;;
78324;SDS011;67584;51.400;6.692;2023-10-19T14:38:34;7.90;;;2.65;;
78324;SDS011;67584;51.400;6.692;2023-10-19T14:41:01;5.35;;;2.50;;
78324;SDS011;67584;51.400;6.692;2023-10-19T14:43:27;7.70;;;2.63;;
78324;SDS011;67584;51.400;6.692;2023-10-19T14:45:54;3.47;;;2.42;;
78324;SDS011;67584;51.400;6.692;2023-10-19T14:48:22;5.72;;;2.50;;
78324;SDS011;67584;51.400;6.692;2023-10-19T14:50:49;8.93;;;2.80;;
78324;SDS011;67584;51.400;6.692;2023-10-19T14:53:16;6.85;;;2.47;;
78324;SDS011;67584;51.400;6.692;2023-10-19T14:55:43;2.75;;;2.30;;
78324;SDS011;67584;51.400;6.692;2023-10-19T14:58:11;4.55;;;2.10;;
78324;SDS011;67584;51.400;6.692;2023-10-19T15:00:37;4.35;;;2.35;;
78324;SDS011;67584;51.400;6.692;2023-10-19T15:03:07;5.55;;;2.40;;
78324;SDS011;67584;51.400;6.692;2023-10-19T15:05:34;5.55;;;2.65;;
78324;SDS011;67584;51.400;6.692;2023-10-19T15:08:03;5.68;;;2.47;;
78324;SDS011;67584;51.400;6.692;2023-10-19T15:10:33;7.05;;;2.72;;
78324;SDS011;67584;51.400;6.692;2023-10-19T15:12:59;7.15;;;2.90;;
78324;SDS011;67584;51.400;6.692;2023-10-19T15:15:25;4.55;;;3.10;;
78324;SDS011;67584;51.400;6.692;2023-10-19T15:17:52;6.47;;;2.90;;